sensor_id;sensor_type;location;lat;lon;timestamp;P1;durP1;ratioP1;P2;durP2;ratioP2
51800;SDS011;37855;53.204;6.568;2023-07-13T00:00:11;10.23;;;2.45;;
51800;SDS011;37855;53.204;6.568;2023-07-13T00:02:40;10.20;;;2.30;;
51800;SDS011;37855;53.204;6.568;2023-07-13T00:05:07;9.87;;;2.40;;
51800;SDS011;37855;53.204;6.568;2023-07-13T00:07:33;11.98;;;2.45;;
51800;SDS011;37855;53.204;6.568;2023-07-13T00:09:59;13.55;;;2.42;;
51800;SDS011;37855;53.204;6.568;2023-07-13T00:12:27;9.52;;;2.60;;
51800;SDS011;37855;53.204;6.568;2023-07-13T00:14:58;11.18;;;2.20;;
51800;SDS011;37855;53.204;6.568;2023-07-13T00:17:26;7.07;;;2.13;;
51800;SDS011;37855;53.204;6.568;2023-07-13T00:19:53;12.15;;;2.63;;
51800;SDS011;37855;53.204;6.568;2023-07-13T00:22:21;8.45;;;2.40;;
51800;SDS011;37855;53.204;6.568;2023-07-13T00:24:47;10.57;;;2.33;;
51800;SDS011;37855;53.204;6.568;2023-07-13T00:27:13;10.13;;;2.50;;
51800;SDS011;37855;53.204;6.568;2023-07-13T00:29:39;7.30;;;2.20;;
51800;SDS011;37855;53.204;6.568;2023-07-13T00:32:05;8.55;;;2.13;;
51800;SDS011;37855;53.204;6.568;2023-07-13T00:34:32;9.25;;;2.40;;
51800;SDS011;37855;53.204;6.568;2023-07-13T00:36:58;11.87;;;2.37;;
51800;SDS011;37855;53.204;6.568;2023-07-13T00:39:24;10.50;;;2.35;;
51800;SDS011;37855;53.204;6.568;2023-07-13T00:41:50;11.07;;;2.13;;
51800;SDS011;37855;53.204;6.568;2023-07-13T00:44:17;10.98;;;2.45;;
51800;SDS011;37855;53.204;6.568;2023-07-13T00:46:44;7.50;;;2.03;;
51800;SDS011;37855;53.204;6.568;2023-07-13T00:49:12;11.93;;;2.50;;
51800;SDS011;37855;53.204;6.568;2023-07-13T00:51:44;10.00;;;2.38;;
51800;SDS011;37855;53.204;6.568;2023-07-13T00:54:18;10.07;;;2.70;;
51800;SDS011;37855;53.204;6.568;2023-07-13T00:56:48;9.95;;;2.42;;
51800;SDS011;37855;53.204;6.568;2023-07-13T00:59:16;14.15;;;2.83;;
51800;SDS011;37855;53.204;6.568;2023-07-13T01:01:44;9.17;;;2.37;;
51800;SDS011;37855;53.204;6.568;2023-07-13T01:04:10;14.73;;;2.70;;
51800;SDS011;37855;53.204;6.568;2023-07-13T01:06:36;16.23;;;3.10;;
51800;SDS011;37855;53.204;6.568;2023-07-13T01:09:03;10.10;;;2.63;;
51800;SDS011;37855;53.204;6.568;2023-07-13T01:11:31;9.65;;;2.58;;
51800;SDS011;37855;53.204;6.568;2023-07-13T01:13:57;11.43;;;2.63;;
51800;SDS011;37855;53.204;6.568;2023-07-13T01:16:27;8.43;;;2.10;;
51800;SDS011;37855;53.204;6.568;2023-07-13T01:18:56;6.72;;;2.25;;
51800;SDS011;37855;53.204;6.568;2023-07-13T01:21:27;10.90;;;2.27;;
51800;SDS011;37855;53.204;6.568;2023-07-13T01:23:55;10.65;;;2.30;;
51800;SDS011;37855;53.204;6.568;2023-07-13T01:26:21;11.00;;;2.53;;
51800;SDS011;37855;53.204;6.568;2023-07-13T01:28:47;13.80;;;2.70;;
51800;SDS011;37855;53.204;6.568;2023-07-13T01:31:12;8.73;;;2.70;;
51800;SDS011;37855;53.204;6.568;2023-07-13T01:33:38;14.65;;;2.80;;
51800;SDS011;37855;53.204;6.568;2023-07-13T01:36:08;10.35;;;2.60;;
51800;SDS011;37855;53.204;6.568;2023-07-13T01:38:35;9.52;;;2.60;;
51800;SDS011;37855;53.204;6.568;2023-07-13T01:41:02;10.10;;;2.40;;
51800;SDS011;37855;53.204;6.568;2023-07-13T01:43:29;10.93;;;2.80;;
51800;SDS011;37855;53.204;6.568;2023-07-13T01:45:55;11.75;;;2.50;;
51800;SDS011;37855;53.204;6.568;2023-07-13T01:48:20;11.05;;;2.33;;
51800;SDS011;37855;53.204;6.568;2023-07-13T01:50:46;10.37;;;3.20;;
51800;SDS011;37855;53.204;6.568;2023-07-13T01:53:13;12.68;;;2.75;;
51800;SDS011;37855;53.204;6.568;2023-07-13T01:55:39;13.60;;;2.70;;
51800;SDS011;37855;53.204;6.568;2023-07-13T01:58:05;13.93;;;3.00;;
51800;SDS011;37855;53.204;6.568;2023-07-13T02:00:32;13.93;;;2.83;;
51800;SDS011;37855;53.204;6.568;2023-07-13T02:02:58;13.48;;;3.05;;
51800;SDS011;37855;53.204;6.568;2023-07-13T02:05:23;11.48;;;2.58;;
51800;SDS011;37855;53.204;6.568;2023-07-13T02:07:49;13.17;;;2.97;;
51800;SDS011;37855;53.204;6.568;2023-07-13T02:10:15;12.05;;;2.70;;
51800;SDS011;37855;53.204;6.568;2023-07-13T02:12:42;9.30;;;3.05;;
51800;SDS011;37855;53.204;6.568;2023-07-13T02:15:08;9.05;;;2.60;;
51800;SDS011;37855;53.204;6.568;2023-07-13T02:17:35;12.90;;;3.08;;
51800;SDS011;37855;53.204;6.568;2023-07-13T02:20:01;10.77;;;2.77;;
51800;SDS011;37855;53.204;6.568;2023-07-13T02:22:28;13.50;;;2.65;;
51800;SDS011;37855;53.204;6.568;2023-07-13T02:24:54;12.75;;;3.00;;
51800;SDS011;37855;53.204;6.568;2023-07-13T02:27:20;13.03;;;2.93;;
51800;SDS011;37855;53.204;6.568;2023-07-13T02:29:45;13.35;;;2.25;;
51800;SDS011;37855;53.204;6.568;2023-07-13T02:32:11;12.93;;;3.10;;
51800;SDS011;37855;53.204;6.568;2023-07-13T02:34:37;10.70;;;2.77;;
51800;SDS011;37855;53.204;6.568;2023-07-13T02:37:03;13.10;;;2.95;;
51800;SDS011;37855;53.204;6.568;2023-07-13T02:39:29;11.02;;;2.78;;
51800;SDS011;37855;53.204;6.568;2023-07-13T02:41:58;12.68;;;3.30;;
51800;SDS011;37855;53.204;6.568;2023-07-13T02:44:25;12.70;;;2.93;;
51800;SDS011;37855;53.204;6.568;2023-07-13T02:46:51;9.63;;;3.08;;
51800;SDS011;37855;53.204;6.568;2023-07-13T02:49:17;17.30;;;3.33;;
51800;SDS011;37855;53.204;6.568;2023-07-13T02:51:43;14.63;;;3.07;;
51800;SDS011;37855;53.204;6.568;2023-07-13T02:54:08;17.33;;;3.17;;
51800;SDS011;37855;53.204;6.568;2023-07-13T02:56:35;15.10;;;3.38;;
51800;SDS011;37855;53.204;6.568;2023-07-13T02:59:00;15.30;;;3.40;;
51800;SDS011;37855;53.204;6.568;2023-07-13T03:01:27;15.07;;;3.05;;
51800;SDS011;37855;53.204;6.568;2023-07-13T03:03:53;14.50;;;3.40;;
51800;SDS011;37855;53.204;6.568;2023-07-13T03:06:19;9.03;;;2.23;;
51800;SDS011;37855;53.204;6.568;2023-07-13T03:08:46;10.57;;;2.83;;
51800;SDS011;37855;53.204;6.568;2023-07-13T03:11:15;10.10;;;2.30;;
51800;SDS011;37855;53.204;6.568;2023-07-13T03:13:43;9.52;;;2.42;;
51800;SDS011;37855;53.204;6.568;2023-07-13T03:16:09;13.50;;;2.97;;
51800;SDS011;37855;53.204;6.568;2023-07-13T03:18:36;14.00;;;2.92;;
51800;SDS011;37855;53.204;6.568;2023-07-13T03:21:02;12.45;;;2.88;;
51800;SDS011;37855;53.204;6.568;2023-07-13T03:23:31;13.07;;;3.00;;
51800;SDS011;37855;53.204;6.568;2023-07-13T03:26:30;10.57;;;2.40;;
51800;SDS011;37855;53.204;6.568;2023-07-13T03:28:50;12.32;;;3.20;;
51800;SDS011;37855;53.204;6.568;2023-07-13T03:31:20;9.60;;;2.30;;
51800;SDS011;37855;53.204;6.568;2023-07-13T03:33:47;9.40;;;2.38;;
51800;SDS011;37855;53.204;6.568;2023-07-13T03:36:14;14.33;;;2.70;;
51800;SDS011;37855;53.204;6.568;2023-07-13T03:38:45;10.25;;;2.50;;
51800;SDS011;37855;53.204;6.568;2023-07-13T03:41:11;12.52;;;2.65;;
51800;SDS011;37855;53.204;6.568;2023-07-13T03:43:37;9.13;;;2.60;;
51800;SDS011;37855;53.204;6.568;2023-07-13T03:46:03;10.33;;;2.40;;
51800;SDS011;37855;53.204;6.568;2023-07-13T03:48:29;9.48;;;2.63;;
51800;SDS011;37855;53.204;6.568;2023-07-13T03:50:54;9.80;;;2.20;;
51800;SDS011;37855;53.204;6.568;2023-07-13T03:53:20;10.30;;;2.35;;
51800;SDS011;37855;53.204;6.568;2023-07-13T03:55:46;10.07;;;2.67;;
51800;SDS011;37855;53.204;6.568;2023-07-13T03:58:29;8.82;;;2.53;;
51800;SDS011;37855;53.204;6.568;2023-07-13T04:01:00;9.07;;;2.33;;
51800;SDS011;37855;53.204;6.568;2023-07-13T04:03:27;13.80;;;2.50;;
51800;SDS011;37855;53.204;6.568;2023-07-13T04:05:55;11.93;;;3.00;;
51800;SDS011;37855;53.204;6.568;2023-07-13T04:08:25;10.52;;;2.55;;
51800;SDS011;37855;53.204;6.568;2023-07-13T04:10:55;9.63;;;2.63;;
51800;SDS011;37855;53.204;6.568;2023-07-13T04:13:22;10.80;;;2.38;;
51800;SDS011;37855;53.204;6.568;2023-07-13T04:15:48;10.85;;;2.60;;
51800;SDS011;37855;53.204;6.568;2023-07-13T04:18:17;11.37;;;2.43;;
51800;SDS011;37855;53.204;6.568;2023-07-13T04:20:45;9.38;;;2.40;;
51800;SDS011;37855;53.204;6.568;2023-07-13T04:23:13;9.15;;;2.65;;
51800;SDS011;37855;53.204;6.568;2023-07-13T04:25:39;10.68;;;2.38;;
51800;SDS011;37855;53.204;6.568;2023-07-13T04:28:08;9.90;;;2.30;;
51800;SDS011;37855;53.204;6.568;2023-07-13T04:30:34;9.88;;;2.45;;
51800;SDS011;37855;53.204;6.568;2023-07-13T04:33:00;14.95;;;2.78;;
51800;SDS011;37855;53.204;6.568;2023-07-13T04:35:26;13.97;;;2.40;;
51800;SDS011;37855;53.204;6.568;2023-07-13T04:37:52;11.13;;;2.70;;
51800;SDS011;37855;53.204;6.568;2023-07-13T04:40:18;11.20;;;2.65;;
51800;SDS011;37855;53.204;6.568;2023-07-13T04:42:45;11.52;;;2.50;;
51800;SDS011;37855;53.204;6.568;2023-07-13T04:45:12;13.43;;;2.20;;
51800;SDS011;37855;53.204;6.568;2023-07-13T04:47:39;8.48;;;2.25;;
51800;SDS011;37855;53.204;6.568;2023-07-13T04:50:06;11.45;;;2.90;;
51800;SDS011;37855;53.204;6.568;2023-07-13T04:52:32;14.15;;;2.40;;
51800;SDS011;37855;53.204;6.568;2023-07-13T04:54:58;13.77;;;2.63;;
51800;SDS011;37855;53.204;6.568;2023-07-13T04:57:25;11.88;;;2.83;;
51800;SDS011;37855;53.204;6.568;2023-07-13T04:59:51;14.35;;;3.30;;
51800;SDS011;37855;53.204;6.568;2023-07-13T05:02:17;11.40;;;2.75;;
51800;SDS011;37855;53.204;6.568;2023-07-13T05:04:46;13.30;;;2.77;;
51800;SDS011;37855;53.204;6.568;2023-07-13T05:07:12;12.30;;;2.30;;
51800;SDS011;37855;53.204;6.568;2023-07-13T05:09:38;12.52;;;2.83;;
51800;SDS011;37855;53.204;6.568;2023-07-13T05:12:05;8.68;;;2.65;;
51800;SDS011;37855;53.204;6.568;2023-07-13T05:14:32;8.63;;;2.30;;
51800;SDS011;37855;53.204;6.568;2023-07-13T05:16:58;11.53;;;2.80;;
51800;SDS011;37855;53.204;6.568;2023-07-13T05:19:23;17.77;;;3.03;;
51800;SDS011;37855;53.204;6.568;2023-07-13T05:21:49;11.35;;;2.50;;
51800;SDS011;37855;53.204;6.568;2023-07-13T05:24:15;15.63;;;2.90;;
51800;SDS011;37855;53.204;6.568;2023-07-13T05:26:41;13.23;;;3.00;;
51800;SDS011;37855;53.204;6.568;2023-07-13T05:29:06;12.37;;;2.57;;
51800;SDS011;37855;53.204;6.568;2023-07-13T05:31:32;13.70;;;2.58;;
51800;SDS011;37855;53.204;6.568;2023-07-13T05:33:58;13.30;;;2.60;;
51800;SDS011;37855;53.204;6.568;2023-07-13T05:36:23;14.02;;;2.70;;
51800;SDS011;37855;53.204;6.568;2023-07-13T05:38:49;12.73;;;2.30;;
51800;SDS011;37855;53.204;6.568;2023-07-13T05:41:15;19.90;;;3.38;;
51800;SDS011;37855;53.204;6.568;2023-07-13T05:43:44;9.93;;;2.37;;
51800;SDS011;37855;53.204;6.568;2023-07-13T05:46:09;9.95;;;2.50;;
51800;SDS011;37855;53.204;6.568;2023-07-13T05:48:35;13.47;;;2.90;;
51800;SDS011;37855;53.204;6.568;2023-07-13T05:51:01;10.65;;;2.65;;
51800;SDS011;37855;53.204;6.568;2023-07-13T05:53:27;15.90;;;2.70;;
51800;SDS011;37855;53.204;6.568;2023-07-13T05:55:53;10.20;;;2.20;;
51800;SDS011;37855;53.204;6.568;2023-07-13T05:58:20;9.10;;;2.40;;
51800;SDS011;37855;53.204;6.568;2023-07-13T06:00:46;11.15;;;2.67;;
51800;SDS011;37855;53.204;6.568;2023-07-13T06:03:13;9.52;;;2.40;;
51800;SDS011;37855;53.204;6.568;2023-07-13T06:05:39;10.73;;;2.50;;
51800;SDS011;37855;53.204;6.568;2023-07-13T06:08:06;10.53;;;2.40;;
51800;SDS011;37855;53.204;6.568;2023-07-13T06:10:33;14.73;;;2.78;;
51800;SDS011;37855;53.204;6.568;2023-07-13T06:12:59;11.10;;;2.28;;
51800;SDS011;37855;53.204;6.568;2023-07-13T06:15:28;9.98;;;2.42;;
51800;SDS011;37855;53.204;6.568;2023-07-13T06:17:54;9.97;;;2.50;;
51800;SDS011;37855;53.204;6.568;2023-07-13T06:20:20;12.70;;;2.47;;
51800;SDS011;37855;53.204;6.568;2023-07-13T06:22:45;9.70;;;2.30;;
51800;SDS011;37855;53.204;6.568;2023-07-13T06:25:14;13.60;;;2.85;;
51800;SDS011;37855;53.204;6.568;2023-07-13T06:27:40;10.75;;;2.45;;
51800;SDS011;37855;53.204;6.568;2023-07-13T06:30:06;10.83;;;2.50;;
51800;SDS011;37855;53.204;6.568;2023-07-13T06:32:32;10.93;;;2.55;;
51800;SDS011;37855;53.204;6.568;2023-07-13T06:34:58;10.43;;;2.35;;
51800;SDS011;37855;53.204;6.568;2023-07-13T06:37:23;13.27;;;2.23;;
51800;SDS011;37855;53.204;6.568;2023-07-13T06:39:49;11.65;;;2.50;;
51800;SDS011;37855;53.204;6.568;2023-07-13T06:42:18;11.27;;;2.40;;
51800;SDS011;37855;53.204;6.568;2023-07-13T06:44:47;9.53;;;2.43;;
51800;SDS011;37855;53.204;6.568;2023-07-13T06:47:12;8.73;;;2.25;;
51800;SDS011;37855;53.204;6.568;2023-07-13T06:49:38;13.70;;;3.03;;
51800;SDS011;37855;53.204;6.568;2023-07-13T06:52:04;11.07;;;2.47;;
51800;SDS011;37855;53.204;6.568;2023-07-13T06:54:30;9.38;;;2.28;;
51800;SDS011;37855;53.204;6.568;2023-07-13T06:56:56;10.00;;;2.60;;
51800;SDS011;37855;53.204;6.568;2023-07-13T06:59:22;11.07;;;2.60;;
51800;SDS011;37855;53.204;6.568;2023-07-13T07:01:47;11.97;;;2.20;;
51800;SDS011;37855;53.204;6.568;2023-07-13T07:04:13;10.35;;;2.08;;
51800;SDS011;37855;53.204;6.568;2023-07-13T07:06:39;7.83;;;2.30;;
51800;SDS011;37855;53.204;6.568;2023-07-13T07:09:04;10.55;;;2.13;;
51800;SDS011;37855;53.204;6.568;2023-07-13T07:11:30;12.13;;;2.53;;
51800;SDS011;37855;53.204;6.568;2023-07-13T07:13:56;7.75;;;2.10;;
51800;SDS011;37855;53.204;6.568;2023-07-13T07:16:22;10.50;;;2.07;;
51800;SDS011;37855;53.204;6.568;2023-07-13T07:18:49;7.60;;;2.00;;
51800;SDS011;37855;53.204;6.568;2023-07-13T07:21:15;11.95;;;2.28;;
51800;SDS011;37855;53.204;6.568;2023-07-13T07:23:43;9.57;;;2.13;;
51800;SDS011;37855;53.204;6.568;2023-07-13T07:26:09;8.40;;;2.20;;
51800;SDS011;37855;53.204;6.568;2023-07-13T07:28:35;7.85;;;2.10;;
51800;SDS011;37855;53.204;6.568;2023-07-13T07:31:01;9.73;;;1.98;;
51800;SDS011;37855;53.204;6.568;2023-07-13T07:33:27;8.05;;;2.20;;
51800;SDS011;37855;53.204;6.568;2023-07-13T07:35:53;9.87;;;2.10;;
51800;SDS011;37855;53.204;6.568;2023-07-13T07:38:18;6.80;;;2.20;;
51800;SDS011;37855;53.204;6.568;2023-07-13T07:40:45;10.32;;;2.45;;
51800;SDS011;37855;53.204;6.568;2023-07-13T07:43:11;6.73;;;1.90;;
51800;SDS011;37855;53.204;6.568;2023-07-13T07:45:38;9.13;;;2.38;;
51800;SDS011;37855;53.204;6.568;2023-07-13T07:48:05;9.40;;;2.15;;
51800;SDS011;37855;53.204;6.568;2023-07-13T07:50:32;8.32;;;2.20;;
51800;SDS011;37855;53.204;6.568;2023-07-13T07:52:58;5.20;;;2.00;;
51800;SDS011;37855;53.204;6.568;2023-07-13T07:55:27;12.70;;;2.13;;
51800;SDS011;37855;53.204;6.568;2023-07-13T07:57:54;10.63;;;2.03;;
51800;SDS011;37855;53.204;6.568;2023-07-13T08:00:21;7.97;;;2.05;;
51800;SDS011;37855;53.204;6.568;2023-07-13T08:02:50;7.55;;;2.42;;
51800;SDS011;37855;53.204;6.568;2023-07-13T08:05:20;8.18;;;2.13;;
51800;SDS011;37855;53.204;6.568;2023-07-13T08:07:46;9.73;;;2.30;;
51800;SDS011;37855;53.204;6.568;2023-07-13T08:10:11;8.05;;;2.20;;
51800;SDS011;37855;53.204;6.568;2023-07-13T08:12:37;7.90;;;2.00;;
51800;SDS011;37855;53.204;6.568;2023-07-13T08:15:04;5.55;;;1.73;;
51800;SDS011;37855;53.204;6.568;2023-07-13T08:17:32;7.43;;;1.95;;
51800;SDS011;37855;53.204;6.568;2023-07-13T08:20:00;6.32;;;1.80;;
51800;SDS011;37855;53.204;6.568;2023-07-13T08:22:27;6.97;;;1.93;;
51800;SDS011;37855;53.204;6.568;2023-07-13T08:24:54;7.13;;;2.27;;
51800;SDS011;37855;53.204;6.568;2023-07-13T08:27:23;4.90;;;2.33;;
51800;SDS011;37855;53.204;6.568;2023-07-13T08:29:50;8.55;;;2.20;;
51800;SDS011;37855;53.204;6.568;2023-07-13T08:32:17;6.32;;;2.00;;
51800;SDS011;37855;53.204;6.568;2023-07-13T08:34:45;7.00;;;1.80;;
51800;SDS011;37855;53.204;6.568;2023-07-13T08:37:11;5.87;;;2.03;;
51800;SDS011;37855;53.204;6.568;2023-07-13T08:39:37;7.03;;;2.17;;
51800;SDS011;37855;53.204;6.568;2023-07-13T08:48:19;4.90;;;1.95;;
51800;SDS011;37855;53.204;6.568;2023-07-13T08:50:51;8.73;;;2.17;;
51800;SDS011;37855;53.204;6.568;2023-07-13T08:53:21;5.25;;;1.95;;
51800;SDS011;37855;53.204;6.568;2023-07-13T08:55:50;8.98;;;2.20;;
51800;SDS011;37855;53.204;6.568;2023-07-13T08:58:24;8.55;;;2.03;;
51800;SDS011;37855;53.204;6.568;2023-07-13T09:03:25;8.63;;;2.10;;
51800;SDS011;37855;53.204;6.568;2023-07-13T09:06:13;7.75;;;2.67;;
51800;SDS011;37855;53.204;6.568;2023-07-13T09:08:49;8.07;;;2.17;;
51800;SDS011;37855;53.204;6.568;2023-07-13T09:12:11;10.02;;;2.40;;
51800;SDS011;37855;53.204;6.568;2023-07-13T09:17:03;6.10;;;2.23;;
51800;SDS011;37855;53.204;6.568;2023-07-13T09:19:36;6.93;;;2.10;;
51800;SDS011;37855;53.204;6.568;2023-07-13T09:22:03;8.55;;;2.10;;
51800;SDS011;37855;53.204;6.568;2023-07-13T09:27:01;7.07;;;2.07;;
51800;SDS011;37855;53.204;6.568;2023-07-13T09:29:47;10.82;;;2.53;;
51800;SDS011;37855;53.204;6.568;2023-07-13T09:32:19;7.47;;;2.00;;
51800;SDS011;37855;53.204;6.568;2023-07-13T09:34:52;7.38;;;2.10;;
51800;SDS011;37855;53.204;6.568;2023-07-13T09:37:20;7.73;;;2.40;;
51800;SDS011;37855;53.204;6.568;2023-07-13T09:39:48;12.57;;;2.30;;
51800;SDS011;37855;53.204;6.568;2023-07-13T09:42:19;12.18;;;2.58;;
51800;SDS011;37855;53.204;6.568;2023-07-13T09:47:16;13.03;;;2.70;;
51800;SDS011;37855;53.204;6.568;2023-07-13T09:49:43;8.52;;;2.28;;
51800;SDS011;37855;53.204;6.568;2023-07-13T09:52:11;9.80;;;2.17;;
51800;SDS011;37855;53.204;6.568;2023-07-13T09:54:43;14.98;;;2.17;;
51800;SDS011;37855;53.204;6.568;2023-07-13T09:57:22;9.60;;;1.90;;
51800;SDS011;37855;53.204;6.568;2023-07-13T09:59:49;9.15;;;2.17;;
51800;SDS011;37855;53.204;6.568;2023-07-13T10:04:58;6.03;;;2.08;;
51800;SDS011;37855;53.204;6.568;2023-07-13T10:07:31;7.13;;;2.10;;
51800;SDS011;37855;53.204;6.568;2023-07-13T10:09:58;6.73;;;2.20;;
51800;SDS011;37855;53.204;6.568;2023-07-13T10:12:26;5.55;;;1.88;;
51800;SDS011;37855;53.204;6.568;2023-07-13T10:14:56;6.60;;;2.13;;
51800;SDS011;37855;53.204;6.568;2023-07-13T10:17:26;6.85;;;1.88;;
51800;SDS011;37855;53.204;6.568;2023-07-13T10:20:04;7.15;;;1.70;;
51800;SDS011;37855;53.204;6.568;2023-07-13T10:25:23;5.53;;;1.75;;
51800;SDS011;37855;53.204;6.568;2023-07-13T10:27:52;5.15;;;1.60;;
51800;SDS011;37855;53.204;6.568;2023-07-13T10:30:23;8.25;;;1.90;;
51800;SDS011;37855;53.204;6.568;2023-07-13T10:32:53;5.30;;;1.58;;
51800;SDS011;37855;53.204;6.568;2023-07-13T10:35:23;10.63;;;1.70;;
51800;SDS011;37855;53.204;6.568;2023-07-13T10:40:29;7.20;;;1.48;;
51800;SDS011;37855;53.204;6.568;2023-07-13T10:43:00;13.25;;;1.90;;
51800;SDS011;37855;53.204;6.568;2023-07-13T10:45:30;7.63;;;1.83;;
51800;SDS011;37855;53.204;6.568;2023-07-13T10:48:01;9.93;;;1.97;;
51800;SDS011;37855;53.204;6.568;2023-07-13T10:50:28;4.88;;;1.40;;
51800;SDS011;37855;53.204;6.568;2023-07-13T10:53:03;7.65;;;1.80;;
51800;SDS011;37855;53.204;6.568;2023-07-13T10:58:21;4.97;;;1.48;;
51800;SDS011;37855;53.204;6.568;2023-07-13T11:01:12;4.57;;;1.40;;
51800;SDS011;37855;53.204;6.568;2023-07-13T11:08:57;6.07;;;1.50;;
51800;SDS011;37855;53.204;6.568;2023-07-13T11:11:32;6.65;;;1.48;;
51800;SDS011;37855;53.204;6.568;2023-07-13T11:14:00;4.90;;;1.50;;
51800;SDS011;37855;53.204;6.568;2023-07-13T11:21:31;3.30;;;1.10;;
51800;SDS011;37855;53.204;6.568;2023-07-13T11:29:23;6.20;;;1.75;;
51800;SDS011;37855;53.204;6.568;2023-07-13T11:31:57;7.18;;;1.60;;
51800;SDS011;37855;53.204;6.568;2023-07-13T11:34:43;4.95;;;1.83;;
51800;SDS011;37855;53.204;6.568;2023-07-13T11:37:15;6.80;;;1.63;;
51800;SDS011;37855;53.204;6.568;2023-07-13T11:39:43;7.47;;;2.35;;
51800;SDS011;37855;53.204;6.568;2023-07-13T11:42:13;5.05;;;1.60;;
51800;SDS011;37855;53.204;6.568;2023-07-13T11:44:46;8.35;;;1.52;;
51800;SDS011;37855;53.204;6.568;2023-07-13T11:47:18;8.18;;;1.92;;
51800;SDS011;37855;53.204;6.568;2023-07-13T11:49:49;8.30;;;1.73;;
51800;SDS011;37855;53.204;6.568;2023-07-13T11:52:18;6.22;;;1.35;;
51800;SDS011;37855;53.204;6.568;2023-07-13T11:57:27;5.07;;;1.55;;
51800;SDS011;37855;53.204;6.568;2023-07-13T12:00:00;7.47;;;1.60;;
51800;SDS011;37855;53.204;6.568;2023-07-13T12:02:37;5.33;;;1.47;;
51800;SDS011;37855;53.204;6.568;2023-07-13T12:05:06;8.52;;;1.55;;
51800;SDS011;37855;53.204;6.568;2023-07-13T12:07:37;9.57;;;1.80;;
51800;SDS011;37855;53.204;6.568;2023-07-13T12:10:13;7.38;;;1.67;;
51800;SDS011;37855;53.204;6.568;2023-07-13T12:15:19;5.07;;;1.60;;
51800;SDS011;37855;53.204;6.568;2023-07-13T12:17:47;3.83;;;1.65;;
51800;SDS011;37855;53.204;6.568;2023-07-13T12:20:24;10.50;;;2.10;;
51800;SDS011;37855;53.204;6.568;2023-07-13T12:22:52;7.03;;;1.58;;
51800;SDS011;37855;53.204;6.568;2023-07-13T12:25:18;7.88;;;2.00;;
51800;SDS011;37855;53.204;6.568;2023-07-13T12:27:49;9.80;;;1.70;;
51800;SDS011;37855;53.204;6.568;2023-07-13T12:35:45;17.10;;;2.20;;
51800;SDS011;37855;53.204;6.568;2023-07-13T12:38:12;11.82;;;1.77;;
51800;SDS011;37855;53.204;6.568;2023-07-13T12:40:41;7.17;;;1.90;;
51800;SDS011;37855;53.204;6.568;2023-07-13T12:43:13;4.18;;;1.50;;
51800;SDS011;37855;53.204;6.568;2023-07-13T12:45:40;6.25;;;1.50;;
51800;SDS011;37855;53.204;6.568;2023-07-13T12:48:30;5.25;;;1.60;;
51800;SDS011;37855;53.204;6.568;2023-07-13T12:51:08;5.90;;;1.70;;
51800;SDS011;37855;53.204;6.568;2023-07-13T12:53:38;6.38;;;1.88;;
51800;SDS011;37855;53.204;6.568;2023-07-13T12:56:08;5.93;;;1.55;;
51800;SDS011;37855;53.204;6.568;2023-07-13T12:58:42;6.72;;;1.80;;
51800;SDS011;37855;53.204;6.568;2023-07-13T13:01:10;8.07;;;1.75;;
51800;SDS011;37855;53.204;6.568;2023-07-13T13:03:39;7.57;;;2.10;;
51800;SDS011;37855;53.204;6.568;2023-07-13T13:08:43;7.43;;;2.00;;
51800;SDS011;37855;53.204;6.568;2023-07-13T13:11:14;5.65;;;1.80;;
51800;SDS011;37855;53.204;6.568;2023-07-13T13:13:44;6.63;;;1.73;;
51800;SDS011;37855;53.204;6.568;2023-07-13T13:16:22;5.80;;;1.70;;
51800;SDS011;37855;53.204;6.568;2023-07-13T13:18:51;6.00;;;1.98;;
51800;SDS011;37855;53.204;6.568;2023-07-13T13:21:19;5.35;;;1.90;;
51800;SDS011;37855;53.204;6.568;2023-07-13T13:23:46;5.60;;;1.90;;
51800;SDS011;37855;53.204;6.568;2023-07-13T13:26:14;6.53;;;1.67;;
51800;SDS011;37855;53.204;6.568;2023-07-13T13:28:43;8.73;;;2.00;;
51800;SDS011;37855;53.204;6.568;2023-07-13T13:31:10;5.90;;;1.70;;
51800;SDS011;37855;53.204;6.568;2023-07-13T13:33:38;4.70;;;1.70;;
51800;SDS011;37855;53.204;6.568;2023-07-13T13:36:29;6.85;;;1.80;;
51800;SDS011;37855;53.204;6.568;2023-07-13T13:38:54;5.63;;;1.98;;
51800;SDS011;37855;53.204;6.568;2023-07-13T13:41:20;6.53;;;2.20;;
51800;SDS011;37855;53.204;6.568;2023-07-13T13:43:46;6.95;;;1.90;;
51800;SDS011;37855;53.204;6.568;2023-07-13T13:46:16;5.90;;;1.97;;
51800;SDS011;37855;53.204;6.568;2023-07-13T13:48:44;8.63;;;2.03;;
51800;SDS011;37855;53.204;6.568;2023-07-13T13:51:14;8.25;;;2.22;;
51800;SDS011;37855;53.204;6.568;2023-07-13T13:53:48;9.02;;;1.80;;
51800;SDS011;37855;53.204;6.568;2023-07-13T13:56:14;4.00;;;1.77;;
51800;SDS011;37855;53.204;6.568;2023-07-13T13:58:42;6.05;;;1.70;;
51800;SDS011;37855;53.204;6.568;2023-07-13T14:01:19;4.75;;;1.85;;
51800;SDS011;37855;53.204;6.568;2023-07-13T14:03:51;6.38;;;1.83;;
51800;SDS011;37855;53.204;6.568;2023-07-13T14:06:16;7.17;;;2.03;;
51800;SDS011;37855;53.204;6.568;2023-07-13T14:08:43;6.78;;;2.30;;
51800;SDS011;37855;53.204;6.568;2023-07-13T14:11:16;7.40;;;1.97;;
51800;SDS011;37855;53.204;6.568;2023-07-13T14:13:47;7.00;;;2.10;;
51800;SDS011;37855;53.204;6.568;2023-07-13T14:16:16;6.50;;;2.08;;
51800;SDS011;37855;53.204;6.568;2023-07-13T14:18:46;7.07;;;1.90;;
51800;SDS011;37855;53.204;6.568;2023-07-13T14:23:40;5.90;;;2.10;;
51800;SDS011;37855;53.204;6.568;2023-07-13T14:26:10;6.38;;;1.80;;
51800;SDS011;37855;53.204;6.568;2023-07-13T14:28:45;5.57;;;1.88;;
51800;SDS011;37855;53.204;6.568;2023-07-13T14:31:13;4.88;;;1.88;;
51800;SDS011;37855;53.204;6.568;2023-07-13T14:33:40;8.55;;;2.00;;
51800;SDS011;37855;53.204;6.568;2023-07-13T14:38:52;7.00;;;1.85;;
51800;SDS011;37855;53.204;6.568;2023-07-13T14:41:18;6.60;;;1.73;;
51800;SDS011;37855;53.204;6.568;2023-07-13T14:43:45;7.70;;;2.33;;
51800;SDS011;37855;53.204;6.568;2023-07-13T14:46:32;12.17;;;2.00;;
51800;SDS011;37855;53.204;6.568;2023-07-13T14:49:01;9.30;;;2.17;;
51800;SDS011;37855;53.204;6.568;2023-07-13T14:51:29;9.40;;;2.53;;
51800;SDS011;37855;53.204;6.568;2023-07-13T14:53:58;5.30;;;1.70;;
51800;SDS011;37855;53.204;6.568;2023-07-13T14:56:27;6.68;;;2.53;;
51800;SDS011;37855;53.204;6.568;2023-07-13T14:58:53;5.27;;;1.70;;
51800;SDS011;37855;53.204;6.568;2023-07-13T15:01:19;6.38;;;1.80;;
51800;SDS011;37855;53.204;6.568;2023-07-13T15:03:48;7.20;;;2.35;;
51800;SDS011;37855;53.204;6.568;2023-07-13T15:06:15;7.83;;;1.97;;
51800;SDS011;37855;53.204;6.568;2023-07-13T15:08:42;8.23;;;2.10;;
51800;SDS011;37855;53.204;6.568;2023-07-13T15:11:08;7.60;;;1.92;;
51800;SDS011;37855;53.204;6.568;2023-07-13T15:13:39;7.97;;;2.45;;
51800;SDS011;37855;53.204;6.568;2023-07-13T15:16:20;6.65;;;1.98;;
51800;SDS011;37855;53.204;6.568;2023-07-13T15:18:48;8.67;;;2.07;;
51800;SDS011;37855;53.204;6.568;2023-07-13T15:21:22;7.13;;;2.35;;
51800;SDS011;37855;53.204;6.568;2023-07-13T15:23:52;9.30;;;2.20;;
51800;SDS011;37855;53.204;6.568;2023-07-13T15:26:18;8.00;;;1.90;;
51800;SDS011;37855;53.204;6.568;2023-07-13T15:28:46;9.70;;;2.30;;
51800;SDS011;37855;53.204;6.568;2023-07-13T15:33:49;6.60;;;1.90;;
51800;SDS011;37855;53.204;6.568;2023-07-13T15:36:21;6.82;;;2.05;;
51800;SDS011;37855;53.204;6.568;2023-07-13T15:38:48;8.18;;;2.10;;
51800;SDS011;37855;53.204;6.568;2023-07-13T15:43:51;10.10;;;2.17;;
51800;SDS011;37855;53.204;6.568;2023-07-13T15:46:19;8.98;;;2.00;;
51800;SDS011;37855;53.204;6.568;2023-07-13T15:48:47;6.82;;;2.13;;
51800;SDS011;37855;53.204;6.568;2023-07-13T15:51:23;9.93;;;2.28;;
51800;SDS011;37855;53.204;6.568;2023-07-13T15:53:59;5.93;;;1.90;;
51800;SDS011;37855;53.204;6.568;2023-07-13T15:56:34;6.57;;;1.80;;